createdAt,value
2022-12-11T00:01:17.634Z,25.80
2022-12-11T00:03:46.056Z,41.30
2022-12-11T00:06:17.672Z,56.10
2022-12-11T00:08:46.194Z,42.50
2022-12-11T00:11:17.273Z,43.70
2022-12-11T00:13:45.062Z,40.40
2022-12-11T00:16:13.206Z,32.80
2022-12-11T00:18:41.376Z,32.10
2022-12-11T00:21:14.223Z,24.00
2022-12-11T00:23:42.260Z,26.20
2022-12-11T00:26:14.748Z,40.60
2022-12-11T00:28:44.762Z,45.20
2022-12-11T00:31:18.411Z,41.40
2022-12-11T00:33:50.130Z,39.70
2022-12-11T00:36:25.836Z,36.50
2022-12-11T00:38:54.466Z,35.30
2022-12-11T00:41:22.752Z,23.60
2022-12-11T00:43:51.164Z,28.90
2022-12-11T00:46:19.032Z,26.60
2022-12-11T00:48:48.554Z,30.10
2022-12-11T00:51:17.940Z,42.00
2022-12-11T00:53:45.641Z,29.40
2022-12-11T00:56:20.369Z,31.70
2022-12-11T00:58:49.541Z,28.40
2022-12-11T01:01:22.490Z,31.20
2022-12-11T01:03:51.571Z,29.90
2022-12-11T01:06:23.794Z,22.80
2022-12-11T01:09:10.727Z,20.40
2022-12-11T01:11:39.799Z,27.50
2022-12-11T01:14:08.240Z,31.10
2022-12-11T01:16:36.095Z,35.10
2022-12-11T01:19:04.048Z,32.60
2022-12-11T01:21:32.008Z,31.70
2022-12-11T01:23:59.748Z,24.90
2022-12-11T01:26:27.456Z,22.90
2022-12-11T01:28:55.204Z,20.80
2022-12-11T01:31:22.921Z,27.90
2022-12-11T01:33:50.605Z,26.80
2022-12-11T01:36:21.875Z,30.30
2022-12-11T01:38:50.219Z,27.40
2022-12-11T01:41:19.306Z,27.70
2022-12-11T01:44:16.320Z,12.50
2022-12-11T01:46:44.132Z,19.70
2022-12-11T01:49:15.004Z,15.00
2022-12-11T01:51:59.198Z,27.10
2022-12-11T01:54:29.587Z,29.70
2022-12-11T01:57:05.912Z,31.70
2022-12-11T01:59:38.666Z,30.90
2022-12-11T02:02:17.705Z,27.00
2022-12-11T02:04:47.088Z,21.80
2022-12-11T02:07:15.404Z,24.00
2022-12-11T02:09:47.454Z,22.00
2022-12-11T02:12:43.113Z,27.50
2022-12-11T02:15:35.759Z,28.90
2022-12-11T02:18:15.522Z,25.90
2022-12-11T02:21:17.181Z,23.80
2022-12-11T02:23:59.821Z,16.40
2022-12-11T02:27:00.671Z,20.50
2022-12-11T02:29:39.489Z,25.60
2022-12-11T02:32:37.145Z,27.60
2022-12-11T02:35:28.386Z,33.30
2022-12-11T02:38:10.702Z,24.80
2022-12-11T02:40:42.815Z,26.30
2022-12-11T02:43:16.067Z,19.50
2022-12-11T02:45:46.897Z,17.20
2022-12-11T02:48:17.657Z,25.20
2022-12-11T02:50:54.645Z,39.00
2022-12-11T02:53:27.756Z,28.80
2022-12-11T02:56:21.860Z,33.40
2022-12-11T02:58:58.821Z,30.30
2022-12-11T03:01:27.752Z,27.70
2022-12-11T03:03:57.855Z,20.60
2022-12-11T03:06:36.480Z,24.30
2022-12-11T03:09:05.742Z,33.80
2022-12-11T03:11:33.559Z,40.20
2022-12-11T03:14:05.731Z,30.90
2022-12-11T03:16:41.628Z,30.70
2022-12-11T03:19:41.839Z,24.60
2022-12-11T03:22:37.034Z,22.10
2022-12-11T03:25:16.791Z,30.60
2022-12-11T03:28:14.359Z,12.80
2022-12-11T03:30:46.467Z,32.30
2022-12-11T03:33:24.151Z,31.90
2022-12-11T03:35:57.157Z,35.70
2022-12-11T03:38:33.427Z,28.90
2022-12-11T03:41:04.015Z,28.10
2022-12-11T03:43:34.094Z,32.10
2022-12-11T03:46:02.395Z,17.30
2022-12-11T03:48:36.083Z,43.00
2022-12-11T03:51:08.317Z,43.00
2022-12-11T03:53:38.601Z,43.20
2022-12-11T03:56:10.249Z,42.20
2022-12-11T03:58:38.666Z,30.00
2022-12-11T04:01:10.956Z,27.90
2022-12-11T04:03:39.326Z,26.20
2022-12-11T04:06:07.642Z,40.70
2022-12-11T04:08:35.503Z,43.40
2022-12-11T04:11:23.686Z,41.70
2022-12-11T04:14:11.362Z,32.10
2022-12-11T04:16:39.660Z,20.10
2022-12-11T04:19:26.234Z,19.90
2022-12-11T04:22:12.789Z,28.40
2022-12-11T04:24:40.749Z,41.30
2022-12-11T04:27:08.513Z,49.80
2022-12-11T04:29:36.210Z,26.80
2022-12-11T04:32:04.220Z,40.20
2022-12-11T04:34:32.056Z,37.10
2022-12-11T04:36:59.815Z,27.30
2022-12-11T04:39:27.450Z,41.60
2022-12-11T04:41:55.218Z,48.50
2022-12-11T04:44:22.887Z,47.70
2022-12-11T04:46:50.653Z,38.60
2022-12-11T04:49:18.452Z,34.30
2022-12-11T04:51:46.111Z,36.00
2022-12-11T04:54:13.810Z,35.70
2022-12-11T04:56:41.530Z,21.40
2022-12-11T04:59:09.796Z,24.50
2022-12-11T05:01:37.516Z,34.30
2022-12-11T05:04:05.378Z,22.80
2022-12-11T05:06:33.037Z,26.80
2022-12-11T05:09:00.717Z,19.20
2022-12-11T05:11:28.427Z,24.30
2022-12-11T05:13:56.064Z,13.90
2022-12-11T05:16:23.826Z,35.60
2022-12-11T05:18:51.497Z,39.80
2022-12-11T05:21:19.224Z,35.30
2022-12-11T05:23:46.962Z,34.10
2022-12-11T05:26:19.680Z,33.10
2022-12-11T05:28:53.351Z,20.30
2022-12-11T05:31:25.529Z,21.70
2022-12-11T05:33:54.302Z,28.00
2022-12-11T05:36:27.041Z,40.30
2022-12-11T05:38:55.688Z,40.00
2022-12-11T05:41:27.028Z,29.50
2022-12-11T05:43:55.371Z,21.40
2022-12-11T05:46:30.207Z,23.00
2022-12-11T05:49:01.807Z,25.80
2022-12-11T05:51:31.087Z,26.20
2022-12-11T05:53:58.777Z,42.60
2022-12-11T05:56:31.614Z,19.90
2022-12-11T05:59:01.861Z,19.20
2022-12-11T06:01:31.124Z,19.70
2022-12-11T06:04:00.363Z,26.90
2022-12-11T06:06:28.316Z,26.50
2022-12-11T06:08:59.297Z,22.20
2022-12-11T06:11:30.220Z,38.00
2022-12-11T06:13:59.213Z,34.60
2022-12-11T06:16:27.012Z,31.80
2022-12-11T06:18:58.063Z,22.40
2022-12-11T06:21:33.116Z,30.50
2022-12-11T06:24:03.767Z,29.40
2022-12-11T06:26:32.116Z,37.80
2022-12-11T06:29:00.399Z,28.30
2022-12-11T06:31:28.266Z,30.40
2022-12-11T06:33:56.123Z,39.40
2022-12-11T06:36:25.232Z,50.30
2022-12-11T06:38:53.143Z,16.20
2022-12-11T06:41:21.059Z,49.20
2022-12-11T06:43:51.132Z,50.80
2022-12-11T06:46:20.359Z,22.30
2022-12-11T06:48:50.064Z,53.70
2022-12-11T06:51:21.759Z,44.00
2022-12-11T06:53:55.604Z,53.70
2022-12-11T06:56:24.922Z,57.80
2022-12-11T06:58:53.108Z,31.60
2022-12-11T07:01:27.422Z,26.00
2022-12-11T07:04:00.405Z,23.20
2022-12-11T07:06:30.000Z,45.20
2022-12-11T07:08:57.778Z,34.70
2022-12-11T07:11:26.412Z,38.70
2022-12-11T07:13:54.201Z,31.20
2022-12-11T07:16:21.936Z,31.30
2022-12-11T07:18:51.539Z,42.40
2022-12-11T07:21:21.298Z,35.50
2022-12-11T07:23:49.974Z,34.60
2022-12-11T07:26:21.713Z,17.50
2022-12-11T07:28:50.256Z,26.00
2022-12-11T07:31:23.112Z,29.80
2022-12-11T07:34:02.671Z,31.60
2022-12-11T07:36:31.861Z,28.70
2022-12-11T07:39:01.486Z,27.60
2022-12-11T07:41:29.195Z,19.40
2022-12-11T07:43:57.252Z,32.50
2022-12-11T07:46:28.756Z,19.60
2022-12-11T07:48:56.644Z,34.90
2022-12-11T07:51:28.871Z,23.30
2022-12-11T07:54:08.440Z,16.10
2022-12-11T07:56:36.391Z,28.40
2022-12-11T07:59:06.303Z,37.40
2022-12-11T08:01:36.741Z,37.10
2022-12-11T08:04:08.019Z,26.10
2022-12-11T08:06:39.935Z,21.50
2022-12-11T08:09:15.978Z,30.90
2022-12-11T08:11:50.923Z,38.80
2022-12-11T08:14:19.681Z,25.70
2022-12-11T08:16:49.897Z,28.20
2022-12-11T08:19:18.103Z,19.50
2022-12-11T08:21:46.093Z,27.40
2022-12-11T08:24:16.449Z,21.90
2022-12-11T08:26:44.097Z,23.80
2022-12-11T08:29:11.860Z,20.00
2022-12-11T08:31:41.787Z,24.10
2022-12-11T08:34:13.856Z,34.00
2022-12-11T08:36:42.051Z,22.50
2022-12-11T08:39:09.857Z,43.50
2022-12-11T08:41:37.615Z,43.10
2022-12-11T08:44:06.126Z,27.50
2022-12-11T08:46:34.540Z,39.20
2022-12-11T08:49:02.434Z,38.50
2022-12-11T08:51:31.115Z,25.60
2022-12-11T08:54:01.423Z,37.60
2022-12-11T08:56:30.438Z,35.80
2022-12-11T08:59:01.495Z,13.20
2022-12-11T09:01:29.939Z,33.70
2022-12-11T09:04:00.839Z,37.50
2022-12-11T09:06:31.024Z,16.00
2022-12-11T09:09:01.198Z,44.40
2022-12-11T09:11:34.202Z,27.80
2022-12-11T09:14:07.341Z,39.60
2022-12-11T09:16:40.704Z,28.10
2022-12-11T09:19:17.751Z,15.40
2022-12-11T09:21:45.715Z,34.40
2022-12-11T09:24:14.278Z,33.60
2022-12-11T09:26:42.439Z,36.40
2022-12-11T09:29:12.310Z,46.20
2022-12-11T09:31:40.932Z,28.80
2022-12-11T09:34:12.413Z,31.20
2022-12-11T09:36:42.391Z,28.60
2022-12-11T09:39:13.247Z,29.30
2022-12-11T09:42:00.188Z,18.70
2022-12-11T09:44:56.487Z,39.00
2022-12-11T09:47:38.216Z,26.80
2022-12-11T09:50:41.648Z,30.80
2022-12-11T09:53:18.773Z,18.50
2022-12-11T09:56:16.535Z,30.30
2022-12-11T09:59:03.281Z,37.50
2022-12-11T10:02:15.076Z,33.50
2022-12-11T10:05:12.974Z,38.40
2022-12-11T10:07:52.746Z,24.00
2022-12-11T10:10:43.900Z,26.80
2022-12-11T10:14:00.325Z,34.30
2022-12-11T10:16:41.615Z,45.20
2022-12-11T10:19:22.299Z,30.70
2022-12-11T10:21:52.698Z,24.50
2022-12-11T10:25:09.452Z,23.00
2022-12-11T10:27:32.112Z,41.00
2022-12-11T10:30:23.253Z,41.40
2022-12-11T10:32:53.752Z,44.70
2022-12-11T10:35:51.599Z,43.40
2022-12-11T10:38:31.640Z,32.50
2022-12-11T10:41:17.469Z,27.00
2022-12-11T10:43:49.791Z,40.90
2022-12-11T10:46:25.661Z,41.60
2022-12-11T10:48:58.142Z,39.40
2022-12-11T10:51:37.464Z,44.00
2022-12-11T10:54:24.890Z,25.90
2022-12-11T10:56:54.271Z,32.20
2022-12-11T10:59:44.184Z,49.90
2022-12-11T11:02:35.995Z,42.90
2022-12-11T11:05:37.668Z,30.20
2022-12-11T11:08:13.403Z,34.00
2022-12-11T11:10:59.268Z,35.10
2022-12-11T11:13:31.170Z,22.90
2022-12-11T11:16:07.805Z,30.00
2022-12-11T11:18:36.150Z,18.00
2022-12-11T11:21:04.039Z,52.60
2022-12-11T11:23:31.938Z,70.00
2022-12-11T11:26:06.340Z,39.20
2022-12-11T11:28:39.286Z,33.40
2022-12-11T11:31:11.667Z,40.60
2022-12-11T11:34:01.067Z,47.80
2022-12-11T11:36:33.684Z,42.90
2022-12-11T11:39:45.089Z,21.90
2022-12-11T11:42:29.910Z,20.10
2022-12-11T11:45:20.703Z,38.70
2022-12-11T11:48:13.047Z,42.60
2022-12-11T11:50:46.601Z,40.00
2022-12-11T11:53:27.006Z,35.90
2022-12-11T11:56:16.351Z,31.90
2022-12-11T11:59:03.458Z,33.40
2022-12-11T12:01:31.653Z,21.00
2022-12-11T12:04:02.936Z,56.30
2022-12-11T12:06:58.809Z,47.50
2022-12-11T12:10:00.927Z,33.20
2022-12-11T12:12:48.655Z,30.50
2022-12-11T12:15:45.401Z,33.30
2022-12-11T12:18:48.987Z,24.80
2022-12-11T12:21:35.511Z,26.40
2022-12-11T12:24:32.472Z,23.20
2022-12-11T12:27:57.995Z,48.90
2022-12-11T12:30:44.765Z,50.80
2022-12-11T12:33:31.911Z,59.20
2022-12-11T12:36:30.059Z,25.00
2022-12-11T12:39:20.254Z,34.30
2022-12-11T12:42:22.452Z,30.10
2022-12-11T12:45:25.865Z,30.90
2022-12-11T12:47:53.771Z,32.50
2022-12-11T12:50:37.198Z,46.50
2022-12-11T12:53:07.634Z,54.90
2022-12-11T12:55:37.078Z,62.70
2022-12-11T12:58:07.496Z,41.60
2022-12-11T13:00:43.656Z,45.50
2022-12-11T13:03:23.376Z,35.20
2022-12-11T13:06:10.168Z,26.10
2022-12-11T13:08:50.200Z,39.50
2022-12-11T13:11:21.509Z,51.50
2022-12-11T13:14:07.889Z,51.10
2022-12-11T13:16:38.274Z,33.40
2022-12-11T13:19:27.322Z,66.10
2022-12-11T13:22:15.273Z,50.60
2022-12-11T13:24:52.574Z,53.30
2022-12-11T13:27:29.746Z,51.10
2022-12-11T13:30:16.354Z,47.10
2022-12-11T13:32:58.256Z,44.10
2022-12-11T13:35:26.996Z,37.80
2022-12-11T13:38:04.503Z,27.10
2022-12-11T13:40:41.704Z,33.40
2022-12-11T13:43:33.123Z,33.20
2022-12-11T13:46:05.522Z,40.10
2022-12-11T13:48:57.092Z,54.30
2022-12-11T13:51:29.391Z,61.10
2022-12-11T13:54:17.208Z,50.80
2022-12-11T13:56:59.114Z,41.50
2022-12-11T13:59:41.685Z,38.00
2022-12-11T14:02:22.115Z,42.70
2022-12-11T14:04:58.240Z,35.60
2022-12-11T14:07:31.999Z,40.20
2022-12-11T14:10:08.167Z,24.80
2022-12-11T14:12:37.123Z,49.70
2022-12-11T14:15:05.930Z,62.90
2022-12-11T14:17:35.406Z,70.20
2022-12-11T14:20:09.117Z,80.50
2022-12-11T14:22:37.039Z,158.50
2022-12-11T14:25:26.369Z,305.10
2022-12-11T14:27:56.829Z,176.00
2022-12-11T14:30:28.824Z,73.40
2022-12-11T14:33:05.300Z,48.30
2022-12-11T14:35:39.524Z,40.80
2022-12-11T14:38:33.556Z,28.90
2022-12-11T14:41:16.547Z,40.50
2022-12-11T14:43:53.442Z,55.20
2022-12-11T14:46:37.569Z,44.20
2022-12-11T14:49:26.332Z,44.00
2022-12-11T14:51:58.947Z,34.50
2022-12-11T14:54:34.008Z,34.60
2022-12-11T14:57:06.526Z,34.40
2022-12-11T14:59:49.413Z,42.90
2022-12-11T15:02:37.106Z,27.80
2022-12-11T15:05:10.781Z,23.20
2022-12-11T15:07:40.375Z,24.90
2022-12-11T15:10:35.602Z,58.00
2022-12-11T15:13:06.318Z,55.10
2022-12-11T15:15:46.645Z,51.00
2022-12-11T15:18:23.219Z,39.00
2022-12-11T15:20:59.868Z,58.70
2022-12-11T15:23:29.192Z,63.40
2022-12-11T15:26:00.444Z,52.50
2022-12-11T15:28:38.063Z,68.10
2022-12-11T15:31:36.828Z,55.70
2022-12-11T15:34:23.259Z,66.30
2022-12-11T15:36:51.071Z,49.40
2022-12-11T15:39:18.744Z,43.10
2022-12-11T15:41:46.464Z,34.60
2022-12-11T15:44:21.538Z,42.70
2022-12-11T15:46:50.245Z,38.70
2022-12-11T15:49:19.093Z,40.70
2022-12-11T15:51:46.764Z,41.80
2022-12-11T15:54:14.380Z,49.00
2022-12-11T15:56:42.099Z,47.90
2022-12-11T15:59:10.992Z,59.80
2022-12-11T16:01:38.929Z,50.70
2022-12-11T16:04:06.724Z,89.20
2022-12-11T16:06:34.502Z,81.30
2022-12-11T16:09:04.111Z,88.50
2022-12-11T16:11:31.902Z,41.00
2022-12-11T16:14:03.396Z,54.60
2022-12-11T16:16:32.155Z,57.90
2022-12-11T16:19:00.814Z,55.80
2022-12-11T16:21:28.481Z,58.90
2022-12-11T16:23:56.335Z,50.90
2022-12-11T16:26:24.017Z,42.60
2022-12-11T16:28:51.716Z,53.10
2022-12-11T16:31:19.461Z,78.50
2022-12-11T16:33:47.423Z,72.10
2022-12-11T16:36:18.826Z,62.80
2022-12-11T16:38:53.520Z,52.60
2022-12-11T16:41:23.260Z,42.70
2022-12-11T16:43:51.545Z,78.40
2022-12-11T16:46:22.304Z,60.10
2022-12-11T16:48:50.432Z,78.20
2022-12-11T16:51:18.367Z,69.90
2022-12-11T16:53:46.610Z,56.40
2022-12-11T16:56:14.378Z,87.60
2022-12-11T16:58:42.147Z,67.20
2022-12-11T17:01:15.550Z,65.10
2022-12-11T17:03:44.234Z,57.00
2022-12-11T17:06:17.156Z,61.20
2022-12-11T17:08:45.569Z,55.30
2022-12-11T17:11:19.715Z,37.80
2022-12-11T17:13:52.397Z,38.80
2022-12-11T17:16:20.082Z,41.70
2022-12-11T17:18:48.031Z,42.00
2022-12-11T17:21:18.478Z,46.00
2022-12-11T17:23:46.259Z,45.70
2022-12-11T17:26:15.229Z,79.20
2022-12-11T17:28:43.742Z,28.80
2022-12-11T17:31:19.385Z,68.40
2022-12-11T17:33:47.684Z,65.40
2022-12-11T17:36:22.035Z,86.60
2022-12-11T17:38:50.157Z,69.90
2022-12-11T17:41:20.712Z,57.60
2022-12-11T17:43:51.320Z,46.10
2022-12-11T17:46:20.544Z,48.30
2022-12-11T17:48:49.126Z,42.80
2022-12-11T17:51:24.143Z,34.30
2022-12-11T17:53:55.680Z,33.90
2022-12-11T17:56:25.120Z,24.70
2022-12-11T17:58:52.872Z,31.70
2022-12-11T18:01:21.636Z,45.20
2022-12-11T18:03:49.549Z,68.10
2022-12-11T18:06:17.790Z,51.30
2022-12-11T18:08:46.052Z,95.80
2022-12-11T18:11:18.011Z,172.80
2022-12-11T18:13:49.226Z,167.40
2022-12-11T18:16:38.113Z,80.90
2022-12-11T18:19:08.335Z,89.90
2022-12-11T18:21:41.261Z,70.70
2022-12-11T18:24:09.872Z,80.10
2022-12-11T18:26:37.784Z,106.00
2022-12-11T18:29:05.689Z,95.30
2022-12-11T18:31:37.495Z,92.50
2022-12-11T18:34:08.523Z,92.70
2022-12-11T18:36:36.243Z,55.20
2022-12-11T18:39:03.971Z,57.30
2022-12-11T18:41:31.644Z,44.50
2022-12-11T18:44:06.634Z,44.20
2022-12-11T18:46:39.586Z,29.50
2022-12-11T18:49:07.520Z,54.10
2022-12-11T18:51:35.913Z,40.70
2022-12-11T18:54:03.826Z,62.70
2022-12-11T18:56:31.592Z,58.50
2022-12-11T18:58:59.363Z,54.40
2022-12-11T19:01:29.986Z,62.10
2022-12-11T19:04:03.591Z,56.90
2022-12-11T19:06:35.557Z,56.90
2022-12-11T19:09:06.879Z,79.80
2022-12-11T19:11:38.304Z,48.30
2022-12-11T19:14:07.480Z,32.40
2022-12-11T19:16:42.993Z,38.60
2022-12-11T19:19:17.675Z,36.60
2022-12-11T19:21:47.200Z,57.40
2022-12-11T19:24:22.447Z,53.20
2022-12-11T19:26:50.821Z,50.50
2022-12-11T19:29:33.698Z,40.30
2022-12-11T19:32:02.949Z,37.10
2022-12-11T19:34:31.052Z,34.70
2022-12-11T19:36:58.880Z,32.00
2022-12-11T19:39:26.997Z,32.50
2022-12-11T19:41:54.692Z,34.30
2022-12-11T19:44:22.424Z,29.00
2022-12-11T19:46:50.427Z,32.70
2022-12-11T19:49:18.328Z,32.90
2022-12-11T19:51:49.133Z,45.30
2022-12-11T19:54:17.880Z,54.90
2022-12-11T19:56:45.811Z,40.10
2022-12-11T19:59:17.639Z,40.90
2022-12-11T20:01:49.571Z,37.50
2022-12-11T20:04:18.002Z,30.20
2022-12-11T20:06:47.208Z,35.20
2022-12-11T20:09:15.936Z,25.70
2022-12-11T20:11:47.270Z,34.50
2022-12-11T20:14:23.638Z,23.40
2022-12-11T20:17:11.079Z,34.10
2022-12-11T20:19:42.397Z,25.10
2022-12-11T20:22:10.812Z,22.70
2022-12-11T20:24:38.563Z,34.80
2022-12-11T20:27:06.489Z,40.20
2022-12-11T20:29:34.221Z,38.00
2022-12-11T20:32:01.966Z,30.90
2022-12-11T20:34:29.751Z,25.10
2022-12-11T20:36:57.591Z,23.20
2022-12-11T20:39:25.495Z,26.00
2022-12-11T20:41:53.184Z,29.80
2022-12-11T20:44:21.201Z,29.00
2022-12-11T20:46:48.903Z,27.30
2022-12-11T20:49:16.651Z,23.80
2022-12-11T20:51:44.348Z,20.40
2022-12-11T20:54:12.302Z,25.50
2022-12-11T20:56:40.162Z,36.50
2022-12-11T20:59:07.930Z,38.20
2022-12-11T21:01:35.603Z,30.80
2022-12-11T21:04:03.386Z,32.70
2022-12-11T21:06:35.220Z,30.30
2022-12-11T21:09:17.686Z,27.40
2022-12-11T21:11:45.527Z,28.80
2022-12-11T21:14:14.448Z,30.70
2022-12-11T21:16:42.745Z,27.40
2022-12-11T21:19:16.643Z,21.20
2022-12-11T21:21:46.566Z,26.60
2022-12-11T21:24:20.746Z,23.50
2022-12-11T21:26:49.611Z,17.70
2022-12-11T21:29:18.299Z,33.90
2022-12-11T21:31:46.062Z,41.10
2022-12-11T21:34:14.047Z,36.00
2022-12-11T21:36:41.755Z,30.20
2022-12-11T21:39:09.815Z,30.10
2022-12-11T21:41:38.704Z,31.20
2022-12-11T21:46:55.234Z,32.20
2022-12-11T21:49:22.943Z,29.00
2022-12-11T21:51:50.669Z,25.10
2022-12-11T21:54:19.601Z,17.50
2022-12-11T21:56:47.678Z,23.70
2022-12-11T21:59:15.950Z,38.90
2022-12-11T22:01:46.261Z,35.80
2022-12-11T22:04:15.906Z,42.10
2022-12-11T22:06:47.345Z,32.40
2022-12-11T22:09:17.763Z,28.90
2022-12-11T22:11:47.248Z,28.00
2022-12-11T22:14:18.343Z,25.40
2022-12-11T22:16:46.802Z,28.50
2022-12-11T22:19:14.621Z,31.00
2022-12-11T22:21:42.793Z,17.20
2022-12-11T22:24:10.787Z,17.20
2022-12-11T22:26:39.173Z,23.90
2022-12-11T22:29:07.188Z,42.00
2022-12-11T22:31:34.946Z,35.00
2022-12-11T22:34:02.767Z,33.00
2022-12-11T22:36:30.380Z,32.10
2022-12-11T22:39:00.401Z,32.90
2022-12-11T22:41:31.992Z,31.50
2022-12-11T22:44:00.416Z,33.00
2022-12-11T22:46:31.113Z,29.40
2022-12-11T22:48:59.431Z,23.20
2022-12-11T22:51:27.596Z,27.20
2022-12-11T22:53:55.455Z,26.20
2022-12-11T22:56:23.070Z,36.70
2022-12-11T22:58:51.311Z,44.10
2022-12-11T23:01:23.241Z,38.20
2022-12-11T23:03:51.988Z,34.00
2022-12-11T23:06:23.481Z,38.10
2022-12-11T23:08:55.039Z,33.20
2022-12-11T23:11:31.602Z,26.50
2022-12-11T23:13:59.587Z,33.60
2022-12-11T23:16:28.362Z,24.40
2022-12-11T23:18:58.229Z,25.60
2022-12-11T23:21:28.511Z,22.70
2022-12-11T23:23:59.467Z,19.20
2022-12-11T23:26:28.729Z,39.30
2022-12-11T23:28:59.195Z,46.20
2022-12-11T23:31:28.130Z,45.90
2022-12-11T23:33:56.177Z,34.50
2022-12-11T23:36:25.969Z,28.30
2022-12-11T23:38:55.216Z,31.50
2022-12-11T23:41:23.721Z,23.60
2022-12-11T23:43:52.150Z,26.20
2022-12-11T23:46:23.449Z,32.50
2022-12-11T23:48:53.059Z,23.50
2022-12-11T23:51:24.581Z,27.10
2022-12-11T23:53:53.226Z,30.40
2022-12-11T23:56:27.155Z,35.10
2022-12-11T23:58:56.499Z,40.40
